createdAt,value
2023-09-04T00:00:55.107Z,95555.63
2023-09-04T00:03:22.268Z,95544.09
2023-09-04T00:05:50.086Z,95553.06
2023-09-04T00:08:17.317Z,95548.25
2023-09-04T00:10:45.465Z,95560.00
2023-09-04T00:13:14.047Z,95563.44
2023-09-04T00:15:41.251Z,95560.19
2023-09-04T00:18:09.281Z,95563.00
2023-09-04T00:20:36.496Z,95553.09
2023-09-04T00:23:03.836Z,95522.69
2023-09-04T00:25:30.908Z,95545.66
2023-09-04T00:27:59.296Z,95551.09
2023-09-04T00:30:26.845Z,95540.72
2023-09-04T00:32:54.105Z,95536.75
2023-09-04T00:35:23.016Z,95527.72
2023-09-04T00:37:50.542Z,95543.09
2023-09-04T00:40:18.076Z,95533.34
2023-09-04T00:42:45.165Z,95521.47
2023-09-04T00:45:15.227Z,95534.00
2023-09-04T00:47:43.925Z,95524.75
2023-09-04T00:50:24.409Z,95544.91
2023-09-04T00:52:54.682Z,95519.09
2023-09-04T00:55:22.196Z,95523.06
2023-09-04T00:57:49.610Z,95523.44
2023-09-04T01:00:20.946Z,95529.22
2023-09-04T01:02:48.414Z,95524.06
2023-09-04T01:05:15.585Z,95532.16
2023-09-04T01:07:43.658Z,95524.88
2023-09-04T01:10:13.543Z,95518.91
2023-09-04T01:13:13.986Z,95520.38
2023-09-04T01:15:41.064Z,95515.31
2023-09-04T01:18:09.659Z,95499.28
2023-09-04T01:20:37.316Z,95499.28
2023-09-04T01:23:05.110Z,95505.22
2023-09-04T01:25:53.571Z,95512.84
2023-09-04T01:28:24.456Z,95511.13
2023-09-04T01:31:28.412Z,95514.47
2023-09-04T01:34:03.532Z,95502.94
2023-09-04T01:36:34.049Z,95513.66
2023-09-04T01:39:01.412Z,95507.41
2023-09-04T01:41:28.464Z,95519.50
2023-09-04T01:43:55.722Z,95527.44
2023-09-04T01:46:23.481Z,95509.94
2023-09-04T01:48:50.906Z,95525.78
2023-09-04T01:51:18.008Z,95503.66
2023-09-04T01:53:45.112Z,95524.63
2023-09-04T01:56:12.207Z,95522.81
2023-09-04T01:58:39.230Z,95527.13
2023-09-04T02:01:06.265Z,95513.25
2023-09-04T02:03:34.620Z,95511.28
2023-09-04T02:06:01.783Z,95509.94
2023-09-04T02:08:28.758Z,95504.47
2023-09-04T02:10:58.928Z,95515.53
2023-09-04T02:13:25.908Z,95517.88
2023-09-04T02:15:53.037Z,95500.06
2023-09-04T02:18:20.119Z,95511.94
2023-09-04T02:20:49.784Z,95510.28
2023-09-04T02:23:16.771Z,95505.00
2023-09-04T02:25:43.883Z,95495.75
2023-09-04T02:28:10.891Z,95512.28
2023-09-04T02:30:40.819Z,95481.72
2023-09-04T02:33:07.880Z,95497.75
2023-09-04T02:36:07.980Z,95504.34
2023-09-04T02:38:39.889Z,95492.47
2023-09-04T02:41:06.941Z,95498.91
2023-09-04T02:43:33.940Z,95492.47
2023-09-04T02:46:01.056Z,95493.44
2023-09-04T02:48:28.252Z,95499.06
2023-09-04T02:51:00.018Z,95495.59
2023-09-04T02:53:30.270Z,95504.50
2023-09-04T02:55:57.672Z,95493.78
2023-09-04T02:58:25.765Z,95503.38
2023-09-04T03:00:53.206Z,95492.81
2023-09-04T03:03:20.871Z,95504.03
2023-09-04T03:05:48.668Z,95491.16
2023-09-04T03:08:16.186Z,95507.00
2023-09-04T03:10:43.339Z,95473.31
2023-09-04T03:13:10.378Z,95496.28
2023-09-04T03:15:38.284Z,95499.59
2023-09-04T03:18:07.413Z,95491.81
2023-09-04T03:20:35.201Z,95489.84
2023-09-04T03:23:02.546Z,95499.41
2023-09-04T03:25:29.764Z,95495.28
2023-09-04T03:27:57.441Z,95500.72
2023-09-04T03:30:25.505Z,95461.75
2023-09-04T03:32:52.795Z,95507.03
2023-09-04T03:35:20.157Z,95500.75
2023-09-04T03:37:47.183Z,95503.53
2023-09-04T03:40:26.239Z,95500.41
2023-09-04T03:42:54.500Z,95501.41
2023-09-04T03:45:22.091Z,95480.41
2023-09-04T03:47:50.347Z,95494.44
2023-09-04T03:50:17.961Z,95486.72
2023-09-04T03:52:45.308Z,95491.81
2023-09-04T03:55:13.212Z,95502.72
2023-09-04T03:57:52.724Z,95493.44
2023-09-04T04:00:21.825Z,95499.53
2023-09-04T04:02:50.521Z,95502.84
2023-09-04T04:05:19.076Z,95505.66
2023-09-04T04:07:46.284Z,95508.13
2023-09-04T04:10:13.566Z,95507.97
2023-09-04T04:12:41.212Z,95503.81
2023-09-04T04:15:09.499Z,95496.69
2023-09-04T04:17:37.749Z,95514.88
2023-09-04T04:20:13.850Z,95517.19
2023-09-04T04:22:42.103Z,95525.09
2023-09-04T04:25:10.217Z,95512.22
2023-09-04T04:27:37.322Z,95525.44
2023-09-04T04:30:04.985Z,95532.34
2023-09-04T04:32:32.321Z,95521.59
2023-09-04T04:34:59.325Z,95530.16
2023-09-04T04:37:26.531Z,95514.59
2023-09-04T04:39:54.003Z,95535.75
2023-09-04T04:42:21.224Z,95543.69
2023-09-04T04:44:48.907Z,95534.59
2023-09-04T04:47:16.865Z,95529.63
2023-09-04T04:49:45.708Z,95544.81
2023-09-04T04:52:12.747Z,95545.09
2023-09-04T04:54:40.011Z,95539.00
2023-09-04T04:57:07.089Z,95554.69
2023-09-04T04:59:34.049Z,95548.41
2023-09-04T05:02:01.651Z,95548.41
2023-09-04T05:04:30.578Z,95536.22
2023-09-04T05:06:58.648Z,95535.72
2023-09-04T05:09:25.754Z,95529.09
2023-09-04T05:11:52.859Z,95544.44
2023-09-04T05:14:19.928Z,95545.09
2023-09-04T05:16:47.026Z,95540.81
2023-09-04T05:19:14.168Z,95546.91
2023-09-04T05:21:55.437Z,95548.06
2023-09-04T05:24:24.459Z,95544.41
2023-09-04T05:26:51.890Z,95529.59
2023-09-04T05:29:19.029Z,95537.50
2023-09-04T05:31:46.020Z,95524.09
2023-09-04T05:34:13.022Z,95524.31
2023-09-04T05:36:39.983Z,95520.00
2023-09-04T05:39:07.008Z,95539.84
2023-09-04T05:41:33.967Z,95531.91
2023-09-04T05:44:01.295Z,95528.97
2023-09-04T05:46:28.310Z,95520.53
2023-09-04T05:48:55.370Z,95530.47
2023-09-04T05:51:22.402Z,95519.75
2023-09-04T05:53:49.432Z,95518.75
2023-09-04T05:56:18.147Z,95520.72
2023-09-04T05:58:51.169Z,95545.88
2023-09-04T06:01:20.178Z,95531.34
2023-09-04T06:03:48.091Z,95531.00
2023-09-04T06:06:16.151Z,95530.69
2023-09-04T06:08:43.179Z,95534.31
2023-09-04T06:11:10.149Z,95541.59
2023-09-04T06:13:37.126Z,95509.03
2023-09-04T06:16:05.039Z,95525.59
2023-09-04T06:18:32.404Z,95539.31
2023-09-04T06:20:59.587Z,95528.41
2023-09-04T06:23:26.851Z,95522.47
2023-09-04T06:25:53.840Z,95521.19
2023-09-04T06:28:20.847Z,95528.44
2023-09-04T06:30:47.912Z,95527.94
2023-09-04T06:33:14.970Z,95524.16
2023-09-04T06:35:41.983Z,95524.19
2023-09-04T06:38:08.928Z,95521.72
2023-09-04T06:40:37.393Z,95524.88
2023-09-04T06:43:06.308Z,95522.53
2023-09-04T06:45:33.352Z,95526.34
2023-09-04T06:48:00.503Z,95523.66
2023-09-04T06:50:27.546Z,95544.31
2023-09-04T06:52:54.499Z,95529.91
2023-09-04T06:55:21.702Z,95516.19
2023-09-04T06:57:48.698Z,95535.47
2023-09-04T07:00:15.936Z,95521.03
2023-09-04T07:02:42.984Z,95519.31
2023-09-04T07:05:10.274Z,95523.38
2023-09-04T07:07:38.974Z,95513.88
2023-09-04T07:10:07.535Z,95517.06
2023-09-04T07:12:36.728Z,95528.50
2023-09-04T07:15:04.978Z,95511.16
2023-09-04T07:17:32.116Z,95512.72
2023-09-04T07:19:59.398Z,95527.03
2023-09-04T07:22:26.353Z,95515.44
2023-09-04T07:24:53.921Z,95523.03
2023-09-04T07:27:20.996Z,95516.16
2023-09-04T07:29:48.369Z,95517.28
2023-09-04T07:32:15.384Z,95526.16
2023-09-04T07:34:42.433Z,95519.50
2023-09-04T07:37:09.485Z,95529.16
2023-09-04T07:39:37.167Z,95503.50
2023-09-04T07:42:04.892Z,95524.97
2023-09-04T07:44:33.186Z,95518.25
2023-09-04T07:47:00.314Z,95513.53
2023-09-04T07:49:27.292Z,95491.91
2023-09-04T07:51:54.836Z,95509.44
2023-09-04T07:54:22.889Z,95516.00
2023-09-04T07:56:49.932Z,95525.34
2023-09-04T07:59:17.055Z,95515.94
2023-09-04T08:01:44.093Z,95534.47
2023-09-04T08:04:11.385Z,95520.16
2023-09-04T08:06:38.397Z,95519.78
2023-09-04T08:09:05.513Z,95522.47
2023-09-04T08:11:32.716Z,95518.59
2023-09-04T08:13:59.967Z,95511.44
2023-09-04T08:16:27.244Z,95512.28
2023-09-04T08:18:54.565Z,95512.06
2023-09-04T08:21:21.629Z,95514.59
2023-09-04T08:23:48.662Z,95504.31
2023-09-04T08:26:16.609Z,95518.25
2023-09-04T08:28:44.223Z,95514.75
2023-09-04T08:31:12.347Z,95520.94
2023-09-04T08:33:39.450Z,95509.84
2023-09-04T08:36:06.730Z,95497.72
2023-09-04T08:38:33.817Z,95521.31
2023-09-04T08:41:06.872Z,95522.75
2023-09-04T08:43:33.896Z,95505.66
2023-09-04T08:46:03.229Z,95503.28
2023-09-04T08:48:34.094Z,95505.25
2023-09-04T08:51:01.219Z,95515.44
2023-09-04T08:53:28.311Z,95511.78
2023-09-04T08:55:55.871Z,95511.75
2023-09-04T08:58:23.178Z,95515.84
2023-09-04T09:00:50.681Z,95530.19
2023-09-04T09:03:18.177Z,95523.31
2023-09-04T09:05:48.693Z,95525.31
2023-09-04T09:08:19.088Z,95520.75
2023-09-04T09:10:49.446Z,95510.97
2023-09-04T09:13:16.922Z,95529.59
2023-09-04T09:15:44.354Z,95516.66
2023-09-04T09:18:11.482Z,95520.47
2023-09-04T09:20:43.817Z,95511.88
2023-09-04T09:23:11.257Z,95515.03
2023-09-04T09:25:39.551Z,95520.16
2023-09-04T09:28:10.193Z,95512.38
2023-09-04T09:30:40.465Z,95517.94
2023-09-04T09:33:14.378Z,95508.72
2023-09-04T09:35:41.860Z,95521.31
2023-09-04T09:38:10.028Z,95505.72
2023-09-04T09:40:38.402Z,95520.56
2023-09-04T09:43:05.522Z,95514.06
2023-09-04T09:45:36.991Z,95504.53
2023-09-04T09:48:06.490Z,95505.44
2023-09-04T09:50:34.264Z,95501.34
2023-09-04T09:53:02.944Z,95495.16
2023-09-04T09:55:33.602Z,95487.13
2023-09-04T09:58:02.645Z,95491.88
2023-09-04T10:00:30.525Z,95483.69
2023-09-04T10:02:59.815Z,95478.41
2023-09-04T10:05:27.729Z,95470.06
2023-09-04T10:08:02.674Z,95475.16
2023-09-04T10:10:38.824Z,95474.97
2023-09-04T10:13:18.329Z,95470.78
2023-09-04T10:15:49.020Z,95476.53
2023-09-04T10:18:23.556Z,95481.09
2023-09-04T10:20:53.011Z,95483.41
2023-09-04T10:23:25.937Z,95467.28
2023-09-04T10:26:14.840Z,95470.78
2023-09-04T10:28:45.318Z,95477.09
2023-09-04T10:31:14.332Z,95479.44
2023-09-04T10:33:42.456Z,95469.50
2023-09-04T10:36:10.688Z,95459.94
2023-09-04T10:38:38.580Z,95464.47
2023-09-04T10:41:09.284Z,95461.91
2023-09-04T10:43:43.336Z,95455.38
2023-09-04T10:46:14.533Z,95434.53
2023-09-04T10:48:53.249Z,95445.19
2023-09-04T10:51:26.195Z,95449.13
2023-09-04T10:53:53.175Z,95444.50
2023-09-04T10:56:20.433Z,95445.56
2023-09-04T10:59:07.747Z,95445.63
2023-09-04T11:01:38.252Z,95428.13
2023-09-04T11:04:08.882Z,95437.19
2023-09-04T11:06:41.517Z,95422.41
2023-09-04T11:09:13.112Z,95431.72
2023-09-04T11:11:40.374Z,95429.06
2023-09-04T11:14:07.612Z,95419.06
2023-09-04T11:16:39.718Z,95411.72
2023-09-04T11:19:16.169Z,95428.09
2023-09-04T11:21:47.971Z,95433.84
2023-09-04T11:24:15.512Z,95430.03
2023-09-04T11:26:42.534Z,95428.56
2023-09-04T11:29:09.635Z,95413.38
2023-09-04T11:31:36.713Z,95408.22
2023-09-04T11:34:05.937Z,95418.81
2023-09-04T11:36:38.651Z,95430.09
2023-09-04T11:39:16.176Z,95414.44
2023-09-04T11:41:43.188Z,95411.25
2023-09-04T11:44:10.352Z,95410.09
2023-09-04T11:46:37.841Z,95408.25
2023-09-04T11:49:05.219Z,95407.25
2023-09-04T11:51:37.044Z,95384.69
2023-09-04T11:54:08.166Z,95394.22
2023-09-04T11:56:36.072Z,95392.09
2023-09-04T11:59:06.864Z,95379.75
2023-09-04T12:01:34.173Z,95394.22
2023-09-04T12:04:03.483Z,95393.34
2023-09-04T12:06:30.898Z,95378.13
2023-09-04T12:08:59.291Z,95383.94
2023-09-04T12:11:28.547Z,95372.78
2023-09-04T12:13:56.371Z,95379.28
2023-09-04T12:16:23.529Z,95361.13
2023-09-04T12:18:50.741Z,95343.03
2023-09-04T12:21:17.751Z,95371.75
2023-09-04T12:23:48.043Z,95367.47
2023-09-04T12:26:17.634Z,95370.66
2023-09-04T12:28:45.452Z,95353.31
2023-09-04T12:31:12.829Z,95352.78
2023-09-04T12:33:42.184Z,95362.94
2023-09-04T12:36:12.359Z,95352.66
2023-09-04T12:38:40.752Z,95342.78
2023-09-04T12:41:08.272Z,95342.44
2023-09-04T12:43:35.767Z,95328.44
2023-09-04T12:46:03.549Z,95350.09
2023-09-04T12:48:30.671Z,95351.16
2023-09-04T12:50:57.687Z,95338.53
2023-09-04T12:53:25.110Z,95345.28
2023-09-04T12:55:52.374Z,95333.31
2023-09-04T12:58:19.870Z,95342.84
2023-09-04T13:00:47.321Z,95328.63
2023-09-04T13:03:14.496Z,95325.16
2023-09-04T13:05:41.951Z,95332.53
2023-09-04T13:08:08.986Z,95338.22
2023-09-04T13:10:36.292Z,95334.75
2023-09-04T13:13:03.466Z,95302.25
2023-09-04T13:15:31.034Z,95313.06
2023-09-04T13:17:58.728Z,95314.63
2023-09-04T13:20:26.008Z,95310.25
2023-09-04T13:22:53.371Z,95314.66
2023-09-04T13:25:20.514Z,95308.19
2023-09-04T13:27:47.529Z,95300.63
2023-09-04T13:30:14.684Z,95306.03
2023-09-04T13:32:41.918Z,95283.28
2023-09-04T13:35:09.593Z,95290.88
2023-09-04T13:37:37.857Z,95269.69
2023-09-04T13:40:06.142Z,95287.59
2023-09-04T13:42:33.568Z,95275.69
2023-09-04T13:45:01.356Z,95274.31
2023-09-04T13:47:28.792Z,95269.19
2023-09-04T13:49:56.648Z,95275.13
2023-09-04T13:52:25.439Z,95261.00
2023-09-04T13:54:56.830Z,95256.13
2023-09-04T13:57:27.060Z,95257.19
2023-09-04T13:59:54.133Z,95260.41
2023-09-04T14:02:21.200Z,95259.38
2023-09-04T14:04:48.287Z,95258.84
2023-09-04T14:07:16.053Z,95256.16
2023-09-04T14:09:43.500Z,95258.59
2023-09-04T14:12:11.459Z,95263.75
2023-09-04T14:14:38.552Z,95238.81
2023-09-04T14:17:06.634Z,95259.81
2023-09-04T14:19:34.054Z,95239.66
2023-09-04T14:22:01.064Z,95246.75
2023-09-04T14:24:28.108Z,95239.09
2023-09-04T14:26:55.160Z,95242.78
2023-09-04T14:29:22.276Z,95243.47
2023-09-04T14:31:49.418Z,95242.22
2023-09-04T14:34:16.522Z,95240.75
2023-09-04T14:36:57.011Z,95232.63
2023-09-04T14:39:30.491Z,95234.81
2023-09-04T14:41:57.481Z,95237.44
2023-09-04T14:44:24.504Z,95240.16
2023-09-04T14:46:51.521Z,95240.34
2023-09-04T14:49:18.565Z,95239.69
2023-09-04T14:51:45.573Z,95239.19
2023-09-04T14:54:12.799Z,95236.25
2023-09-04T14:56:40.057Z,95215.44
2023-09-04T14:59:07.386Z,95199.09
2023-09-04T15:01:34.534Z,95214.59
2023-09-04T15:04:02.448Z,95218.94
2023-09-04T15:06:29.927Z,95220.09
2023-09-04T15:08:57.133Z,95231.34
2023-09-04T15:11:26.448Z,95227.38
2023-09-04T15:13:53.534Z,95226.34
2023-09-04T15:16:20.514Z,95219.81
2023-09-04T15:18:47.532Z,95231.00
2023-09-04T15:21:17.634Z,95229.16
2023-09-04T15:23:44.624Z,95205.75
2023-09-04T15:26:11.627Z,95209.88
2023-09-04T15:28:38.637Z,95215.09
2023-09-04T15:31:05.712Z,95228.38
2023-09-04T15:33:32.721Z,95209.59
2023-09-04T15:36:02.608Z,95220.97
2023-09-04T15:38:32.042Z,95214.44
2023-09-04T15:40:59.920Z,95222.00
2023-09-04T15:43:26.973Z,95219.00
2023-09-04T15:45:55.513Z,95220.38
2023-09-04T15:48:25.260Z,95209.44
2023-09-04T15:50:52.553Z,95214.28
2023-09-04T15:53:24.462Z,95215.75
2023-09-04T15:55:56.794Z,95209.16
2023-09-04T15:58:25.178Z,95216.41
2023-09-04T16:00:55.733Z,95202.75
2023-09-04T16:03:22.848Z,95192.28
2023-09-04T16:05:49.995Z,95196.31
2023-09-04T16:08:18.176Z,95188.75
2023-09-04T16:10:48.586Z,95189.81
2023-09-04T16:13:20.772Z,95200.59
2023-09-04T16:15:47.828Z,95200.41
2023-09-04T16:18:14.804Z,95199.22
2023-09-04T16:20:46.687Z,95199.09
2023-09-04T16:23:17.807Z,95185.69
2023-09-04T16:25:45.448Z,95197.34
2023-09-04T16:28:12.768Z,95194.47
2023-09-04T16:30:40.928Z,95208.53
2023-09-04T16:33:12.867Z,95211.44
2023-09-04T16:35:42.576Z,95207.19
2023-09-04T16:38:09.812Z,95207.97
2023-09-04T16:40:44.292Z,95200.47
2023-09-04T16:43:11.499Z,95198.28
2023-09-04T16:45:38.742Z,95210.00
2023-09-04T16:48:08.761Z,95205.78
2023-09-04T16:50:35.951Z,95198.88
2023-09-04T16:53:03.919Z,95204.91
2023-09-04T16:55:33.585Z,95206.53
2023-09-04T16:58:00.708Z,95211.69
2023-09-04T17:00:27.947Z,95202.38
2023-09-04T17:02:55.216Z,95211.44
2023-09-04T17:05:23.726Z,95214.41
2023-09-04T17:07:50.702Z,95195.94
2023-09-04T17:10:19.160Z,95205.34
2023-09-04T17:12:46.190Z,95204.38
2023-09-04T17:15:13.174Z,95200.53
2023-09-04T17:17:40.176Z,95214.91
2023-09-04T17:20:08.402Z,95219.50
2023-09-04T17:22:35.934Z,95217.50
2023-09-04T17:25:02.907Z,95212.38
2023-09-04T17:27:29.929Z,95216.59
2023-09-04T17:29:57.009Z,95227.66
2023-09-04T17:32:24.614Z,95208.53
2023-09-04T17:34:51.647Z,95213.59
2023-09-04T17:37:18.670Z,95210.34
2023-09-04T17:39:45.675Z,95215.13
2023-09-04T17:42:15.281Z,95219.63
2023-09-04T17:44:42.536Z,95213.44
2023-09-04T17:47:09.633Z,95221.03
2023-09-04T17:49:37.846Z,95200.50
2023-09-04T17:52:05.393Z,95220.47
2023-09-04T17:54:32.691Z,95194.81
2023-09-04T17:56:59.648Z,95209.28
2023-09-04T17:59:27.153Z,95210.56
2023-09-04T18:01:55.417Z,95213.22
2023-09-04T18:04:22.476Z,95208.78
2023-09-04T18:06:49.464Z,95216.09
2023-09-04T18:09:16.452Z,95224.81
2023-09-04T18:11:43.468Z,95220.94
2023-09-04T18:14:10.517Z,95217.06
2023-09-04T18:16:37.492Z,95208.94
2023-09-04T18:19:04.767Z,95213.81
2023-09-04T18:21:31.881Z,95218.59
2023-09-04T18:23:58.910Z,95206.13
2023-09-04T18:26:26.258Z,95217.38
2023-09-04T18:28:54.212Z,95210.94
2023-09-04T18:31:24.588Z,95218.81
2023-09-04T18:33:53.098Z,95205.00
2023-09-04T18:36:20.257Z,95224.56
2023-09-04T18:38:47.831Z,95218.25
2023-09-04T18:41:16.800Z,95222.84
2023-09-04T18:43:47.486Z,95222.53
2023-09-04T18:46:14.691Z,95214.41
2023-09-04T18:48:41.718Z,95212.25
2023-09-04T18:51:08.679Z,95217.47
2023-09-04T18:53:37.636Z,95213.72
2023-09-04T18:56:05.774Z,95208.47
2023-09-04T18:58:33.716Z,95206.06
2023-09-04T19:01:04.046Z,95219.03
2023-09-04T19:03:31.363Z,95212.56
2023-09-04T19:05:58.567Z,95206.69
2023-09-04T19:08:25.946Z,95225.78
2023-09-04T19:10:54.610Z,95221.38
2023-09-04T19:13:22.656Z,95229.38
2023-09-04T19:15:50.162Z,95218.59
2023-09-04T19:18:17.911Z,95220.25
2023-09-04T19:20:44.895Z,95210.03
2023-09-04T19:23:11.891Z,95216.22
2023-09-04T19:25:38.925Z,95231.00
2023-09-04T19:28:06.718Z,95223.84
2023-09-04T19:30:33.713Z,95197.44
2023-09-04T19:33:01.421Z,95223.34
2023-09-04T19:35:28.537Z,95194.84
2023-09-04T19:37:55.566Z,95221.31
2023-09-04T19:40:22.542Z,95218.06
2023-09-04T19:42:49.577Z,95207.81
2023-09-04T19:45:17.575Z,95211.91
2023-09-04T19:47:44.677Z,95217.06
2023-09-04T19:50:12.229Z,95229.38
2023-09-04T19:52:40.124Z,95223.88
2023-09-04T19:55:08.011Z,95230.66
2023-09-04T19:57:37.633Z,95235.38
2023-09-04T20:00:07.870Z,95223.31
2023-09-04T20:02:43.771Z,95232.53
2023-09-04T20:05:10.993Z,95236.25
2023-09-04T20:07:38.749Z,95228.47
2023-09-04T20:10:06.849Z,95239.53
2023-09-04T20:12:33.848Z,95196.06
2023-09-04T20:15:00.927Z,95232.59
2023-09-04T20:17:27.944Z,95226.25
2023-09-04T20:19:55.097Z,95223.34
2023-09-04T20:22:23.874Z,95200.59
2023-09-04T20:24:51.529Z,95226.81
2023-09-04T20:27:18.537Z,95220.69
2023-09-04T20:29:45.561Z,95221.47
2023-09-04T20:32:16.131Z,95215.75
2023-09-04T20:34:43.265Z,95207.53
2023-09-04T20:37:10.390Z,95221.47
2023-09-04T20:39:37.442Z,95221.47
2023-09-04T20:42:08.371Z,95217.81
2023-09-04T20:44:36.062Z,95211.22
2023-09-04T20:47:06.682Z,95216.16
2023-09-04T20:49:33.933Z,95220.88
2023-09-04T20:52:00.895Z,95207.94
2023-09-04T20:54:27.860Z,95205.47
2023-09-04T20:56:57.100Z,95206.91
2023-09-04T20:59:27.814Z,95142.47
2023-09-04T21:01:55.989Z,95202.16
2023-09-04T21:04:23.895Z,95200.28
2023-09-04T21:06:52.482Z,95145.31
2023-09-04T21:09:20.894Z,95136.47
2023-09-04T21:12:07.052Z,95165.16
2023-09-04T21:14:53.262Z,95163.69
2023-09-04T21:17:39.682Z,95198.78
2023-09-04T21:20:29.373Z,95167.16
2023-09-04T21:23:15.803Z,95167.34
2023-09-04T21:26:01.878Z,95176.53
2023-09-04T21:28:50.841Z,95206.06
2023-09-04T21:31:40.179Z,95150.22
2023-09-04T21:34:26.317Z,95190.41
2023-09-04T21:37:12.294Z,95132.75
2023-09-04T21:39:58.530Z,95135.41
2023-09-04T21:42:44.579Z,95130.47
2023-09-04T21:45:33.711Z,95143.13
2023-09-04T21:48:19.853Z,95129.16
2023-09-04T21:51:06.132Z,95182.56
2023-09-04T21:53:52.072Z,95140.59
2023-09-04T21:56:38.188Z,95146.41
2023-09-04T21:59:23.719Z,95189.44
2023-09-04T22:02:09.229Z,95185.53
2023-09-04T22:04:54.712Z,95169.47
2023-09-04T22:07:40.607Z,95170.59
2023-09-04T22:10:26.372Z,95165.47
2023-09-04T22:13:12.242Z,95162.63
2023-09-04T22:15:57.980Z,95172.03
2023-09-04T22:18:48.209Z,95152.97
2023-09-04T22:21:34.476Z,95154.00
2023-09-04T22:24:19.857Z,95155.59
2023-09-04T22:27:05.471Z,95149.03
2023-09-04T22:29:52.917Z,95163.56
2023-09-04T22:32:39.531Z,95155.78
2023-09-04T22:35:25.965Z,95152.06
2023-09-04T22:38:11.604Z,95147.66
2023-09-04T22:40:57.540Z,95149.09
2023-09-04T22:43:43.155Z,95142.94
2023-09-04T22:46:28.942Z,95144.75
2023-09-04T22:49:14.563Z,95128.88
2023-09-04T22:52:00.148Z,95142.94
2023-09-04T22:54:45.625Z,95139.41
2023-09-04T22:57:31.358Z,95145.53
2023-09-04T23:00:17.107Z,95148.81
2023-09-04T23:03:02.744Z,95143.72
2023-09-04T23:05:48.245Z,95152.63
2023-09-04T23:08:33.716Z,95148.19
2023-09-04T23:11:19.701Z,95158.19
2023-09-04T23:14:05.134Z,95156.91
2023-09-04T23:16:53.289Z,95143.72
2023-09-04T23:19:40.292Z,95145.94
2023-09-04T23:22:08.195Z,95149.59
2023-09-04T23:24:35.510Z,95159.19
2023-09-04T23:27:05.382Z,95143.19
2023-09-04T23:29:32.624Z,95140.72
2023-09-04T23:32:10.921Z,95138.28
2023-09-04T23:34:39.435Z,95141.94
2023-09-04T23:37:10.230Z,95139.03
2023-09-04T23:40:00.363Z,95126.72
2023-09-04T23:42:47.767Z,95132.00
2023-09-04T23:45:18.376Z,95133.19
2023-09-04T23:47:48.924Z,95127.88
2023-09-04T23:50:18.427Z,95128.63
2023-09-04T23:52:46.403Z,95121.59
2023-09-04T23:55:18.328Z,95126.09
2023-09-04T23:57:49.819Z,95128.59
